createdAt,value
2022-08-22T00:02:14.135Z,16.25
2022-08-22T00:02:41.976Z,19.71
2022-08-22T00:02:46.809Z,18.21
2022-08-22T00:03:03.230Z,18.20
2022-08-22T00:03:06.481Z,16.74
2022-08-22T00:03:10.808Z,17.11
2022-08-22T00:07:30.629Z,16.27
2022-08-22T00:12:52.959Z,16.24
2022-08-22T00:18:05.825Z,16.16
2022-08-22T00:23:11.762Z,16.09
2022-08-22T00:28:41.803Z,16.07
2022-08-22T00:33:51.191Z,16.00
2022-08-22T00:39:16.521Z,15.95
2022-08-22T00:44:41.334Z,15.88
2022-08-22T00:50:08.181Z,15.86
2022-08-22T00:55:23.671Z,15.80
2022-08-22T01:00:34.360Z,15.79
2022-08-22T01:06:07.110Z,15.78
2022-08-22T01:11:23.163Z,15.71
2022-08-22T01:16:40.906Z,15.64
2022-08-22T01:22:13.942Z,15.63
2022-08-22T01:27:35.859Z,15.67
2022-08-22T01:32:44.967Z,15.72
2022-08-22T01:37:58.656Z,15.66
2022-08-22T01:43:05.175Z,15.63
2022-08-22T01:48:17.412Z,15.59
2022-08-22T01:53:31.155Z,15.58
2022-08-22T01:58:43.679Z,15.65
2022-08-22T02:04:34.198Z,15.65
2022-08-22T02:09:48.978Z,15.66
2022-08-22T02:15:00.787Z,15.66
2022-08-22T02:20:20.463Z,15.69
2022-08-22T02:25:29.219Z,15.72
2022-08-22T02:31:01.099Z,15.78
2022-08-22T02:36:25.504Z,15.80
2022-08-22T02:41:28.917Z,15.84
2022-08-22T02:46:51.684Z,15.90
2022-08-22T02:52:43.533Z,15.91
2022-08-22T02:58:03.433Z,15.94
2022-08-22T03:03:22.309Z,15.89
2022-08-22T03:08:59.412Z,15.82
2022-08-22T03:14:14.703Z,15.84
2022-08-22T03:19:32.042Z,15.87
2022-08-22T03:24:43.451Z,15.86
2022-08-22T03:30:01.402Z,15.87
2022-08-22T03:35:10.208Z,15.89
2022-08-22T03:40:34.950Z,15.86
2022-08-22T03:45:48.704Z,15.88
2022-08-22T03:51:23.453Z,15.93
2022-08-22T03:56:38.595Z,15.95
2022-08-22T04:01:47.894Z,15.95
2022-08-22T04:07:27.973Z,15.93
2022-08-22T04:13:12.912Z,15.98
2022-08-22T04:18:34.696Z,15.99
2022-08-22T04:23:53.376Z,16.04
2022-08-22T04:29:03.436Z,16.06
2022-08-22T04:34:21.185Z,16.04
2022-08-22T04:40:07.351Z,16.11
2022-08-22T04:45:36.311Z,16.18
2022-08-22T04:50:55.054Z,16.24
2022-08-22T04:56:23.825Z,16.27
2022-08-22T05:01:53.257Z,16.35
2022-08-22T05:07:09.266Z,16.44
2022-08-22T05:12:18.882Z,16.47
2022-08-22T05:17:28.776Z,16.52
2022-08-22T05:22:37.485Z,16.60
2022-08-22T05:27:46.738Z,16.67
2022-08-22T05:33:02.232Z,16.69
2022-08-22T05:38:08.606Z,16.70
2022-08-22T05:43:13.255Z,16.75
2022-08-22T05:48:25.783Z,16.81
2022-08-22T05:53:43.586Z,16.96
2022-08-22T05:58:56.675Z,16.99
2022-08-22T06:03:59.882Z,16.98
2022-08-22T06:09:35.542Z,17.05
2022-08-22T06:15:00.163Z,17.13
2022-08-22T06:20:09.100Z,17.22
2022-08-22T06:25:23.167Z,17.29
2022-08-22T06:30:28.739Z,17.34
2022-08-22T06:35:56.620Z,17.34
2022-08-22T06:41:06.075Z,17.36
2022-08-22T06:46:13.785Z,17.36
2022-08-22T06:51:19.744Z,17.48
2022-08-22T06:56:29.851Z,17.51
2022-08-22T07:01:47.020Z,17.63
2022-08-22T07:06:51.946Z,17.68
2022-08-22T07:12:01.574Z,17.79
2022-08-22T07:17:10.617Z,17.99
2022-08-22T07:22:15.977Z,18.18
2022-08-22T07:27:52.852Z,18.34
2022-08-22T07:32:56.183Z,18.46
2022-08-22T07:38:33.595Z,18.50
2022-08-22T07:43:46.386Z,18.56
2022-08-22T07:49:10.073Z,18.60
2022-08-22T07:54:20.864Z,18.48
2022-08-22T07:59:25.550Z,18.57
2022-08-22T08:04:39.954Z,18.73
2022-08-22T08:09:53.185Z,18.85
2022-08-22T08:14:57.214Z,18.93
2022-08-22T08:20:06.507Z,19.03
2022-08-22T08:25:16.712Z,19.14
2022-08-22T08:30:25.039Z,19.21
2022-08-22T08:36:02.062Z,19.28
2022-08-22T08:41:11.782Z,19.41
2022-08-22T08:46:33.203Z,19.71
2022-08-22T08:52:00.878Z,20.00
2022-08-22T08:57:06.997Z,20.31
2022-08-22T09:02:42.498Z,20.67
2022-08-22T09:08:01.689Z,20.93
2022-08-22T09:13:34.518Z,21.26
2022-08-22T09:19:11.530Z,21.17
2022-08-22T09:24:23.946Z,21.06
2022-08-22T09:29:54.897Z,21.25
2022-08-22T09:35:39.203Z,21.74
2022-08-22T09:41:09.037Z,21.45
2022-08-22T09:46:21.471Z,20.99
2022-08-22T09:51:52.564Z,20.71
2022-08-22T09:57:13.898Z,20.59
2022-08-22T10:02:43.626Z,20.68
2022-08-22T10:08:01.028Z,20.89
2022-08-22T10:13:16.322Z,21.12
2022-08-22T10:18:53.817Z,21.34
2022-08-22T10:24:06.983Z,21.73
2022-08-22T10:29:32.403Z,21.87
2022-08-22T10:34:46.159Z,22.08
2022-08-22T10:40:13.526Z,22.39
2022-08-22T10:45:35.495Z,22.61
2022-08-22T10:50:50.363Z,22.83
2022-08-22T10:56:04.018Z,22.89
2022-08-22T11:01:37.876Z,22.84
2022-08-22T11:06:47.204Z,22.77
2022-08-22T11:12:12.897Z,23.02
2022-08-22T11:17:30.860Z,23.56
2022-08-22T11:22:42.492Z,23.84
2022-08-22T11:28:33.214Z,24.33
2022-08-22T11:33:47.150Z,24.36
2022-08-22T11:39:06.553Z,24.09
2022-08-22T11:44:22.879Z,23.95
2022-08-22T11:50:13.813Z,24.30
2022-08-22T11:55:38.619Z,24.49
2022-08-22T12:00:58.727Z,24.56
2022-08-22T12:06:20.980Z,24.80
2022-08-22T12:11:56.958Z,24.82
2022-08-22T12:17:51.054Z,25.00
2022-08-22T12:23:04.438Z,25.20
2022-08-22T12:28:07.818Z,25.14
2022-08-22T12:33:22.071Z,25.11
2022-08-22T12:38:31.241Z,25.50
2022-08-22T12:43:42.544Z,25.74
2022-08-22T12:49:07.680Z,25.33
2022-08-22T12:54:57.558Z,24.97
2022-08-22T13:00:29.362Z,24.95
2022-08-22T13:05:41.022Z,24.80
2022-08-22T13:10:52.853Z,24.85
2022-08-22T13:16:08.451Z,25.53
2022-08-22T13:21:17.338Z,26.29
2022-08-22T13:26:33.134Z,26.96
2022-08-22T13:31:41.424Z,27.17
2022-08-22T13:36:51.837Z,27.10
2022-08-22T13:41:59.531Z,27.04
2022-08-22T13:47:16.242Z,26.88
2022-08-22T13:52:30.393Z,26.96
2022-08-22T13:57:36.892Z,26.98
2022-08-22T14:03:05.553Z,27.14
2022-08-22T14:08:21.303Z,27.73
2022-08-22T14:13:36.849Z,27.97
2022-08-22T14:18:48.300Z,27.69
2022-08-22T14:23:55.071Z,27.25
2022-08-22T14:29:01.582Z,26.89
2022-08-22T14:34:13.698Z,26.67
2022-08-22T14:39:42.885Z,26.21
2022-08-22T14:44:49.909Z,25.60
2022-08-22T14:49:56.702Z,25.26
2022-08-22T14:55:18.038Z,24.90
2022-08-22T15:00:33.530Z,24.77
2022-08-22T15:05:51.933Z,24.72
2022-08-22T15:11:25.597Z,24.55
2022-08-22T15:16:40.537Z,24.92
2022-08-22T15:21:45.963Z,27.49
2022-08-22T15:26:55.406Z,29.75
2022-08-22T15:32:02.619Z,29.81
2022-08-22T15:37:16.670Z,32.46
2022-08-22T15:42:27.394Z,32.65
2022-08-22T15:47:47.059Z,31.13
2022-08-22T15:53:19.561Z,33.58
2022-08-22T15:58:25.287Z,35.07
2022-08-22T16:03:33.607Z,35.48
2022-08-22T16:08:36.965Z,36.15
2022-08-22T16:13:43.681Z,35.99
2022-08-22T16:18:47.065Z,35.50
2022-08-22T16:23:50.274Z,35.69
2022-08-22T16:29:05.772Z,35.76
2022-08-22T16:34:18.490Z,34.72
2022-08-22T16:39:21.816Z,33.95
2022-08-22T16:44:27.918Z,33.27
2022-08-22T16:49:35.604Z,32.59
2022-08-22T16:54:46.458Z,31.67
2022-08-22T17:00:22.772Z,29.86
2022-08-22T17:05:41.345Z,27.91
2022-08-22T17:11:02.781Z,26.50
2022-08-22T17:16:21.351Z,25.12
2022-08-22T17:21:32.340Z,23.87
2022-08-22T17:26:41.388Z,22.92
2022-08-22T17:32:14.904Z,22.35
2022-08-22T17:37:37.163Z,21.80
2022-08-22T17:43:00.137Z,21.39
2022-08-22T17:48:34.674Z,21.11
2022-08-22T17:54:06.350Z,20.94
2022-08-22T17:59:22.157Z,20.74
2022-08-22T18:04:35.501Z,20.61
2022-08-22T18:09:45.979Z,20.50
2022-08-22T18:14:52.975Z,20.40
2022-08-22T18:20:29.366Z,20.34
2022-08-22T18:25:42.198Z,20.28
2022-08-22T18:30:54.825Z,20.24
2022-08-22T18:36:15.441Z,20.17
2022-08-22T18:41:28.073Z,20.06
2022-08-22T18:46:39.573Z,19.99
2022-08-22T18:51:44.118Z,19.89
2022-08-22T18:57:02.142Z,19.81
2022-08-22T19:02:33.929Z,19.75
2022-08-22T19:07:56.717Z,19.68
2022-08-22T19:13:19.869Z,19.60
2022-08-22T19:18:29.957Z,19.54
2022-08-22T19:23:33.620Z,19.50
2022-08-22T19:28:39.431Z,19.45
2022-08-22T19:34:08.775Z,19.44
2022-08-22T19:39:43.340Z,19.39
2022-08-22T19:45:08.449Z,19.30
2022-08-22T19:50:27.218Z,19.24
2022-08-22T19:55:38.202Z,19.17
2022-08-22T20:00:53.196Z,19.12
2022-08-22T20:06:43.002Z,19.05
2022-08-22T20:12:15.146Z,18.97
2022-08-22T20:17:27.500Z,18.92
2022-08-22T20:22:39.922Z,18.84
2022-08-22T20:27:50.988Z,18.80
2022-08-22T20:33:00.918Z,18.77
2022-08-22T20:38:08.347Z,18.79
2022-08-22T20:43:34.367Z,18.84
2022-08-22T20:48:47.946Z,18.87
2022-08-22T20:54:02.484Z,18.85
2022-08-22T20:59:43.346Z,18.83
2022-08-22T21:05:04.934Z,18.82
2022-08-22T21:10:40.247Z,18.81
2022-08-22T21:15:48.164Z,18.79
2022-08-22T21:20:52.616Z,18.78
2022-08-22T21:25:58.165Z,18.76
2022-08-22T21:31:10.999Z,18.78
2022-08-22T21:36:17.894Z,18.78
2022-08-22T21:41:43.681Z,18.76
2022-08-22T21:46:47.456Z,18.68
2022-08-22T21:51:53.734Z,18.62
2022-08-22T21:56:58.581Z,18.56
2022-08-22T22:02:37.361Z,18.50
2022-08-22T22:07:44.423Z,18.42
2022-08-22T22:12:49.558Z,18.35
2022-08-22T22:17:53.501Z,18.30
2022-08-22T22:22:56.913Z,18.27
2022-08-22T22:28:01.142Z,18.23
2022-08-22T22:33:04.869Z,18.19
2022-08-22T22:38:09.618Z,18.21
2022-08-22T22:43:13.238Z,18.21
2022-08-22T22:48:24.234Z,18.25
2022-08-22T22:53:38.092Z,18.26
2022-08-22T22:58:42.262Z,18.23
2022-08-22T23:03:46.646Z,18.18
2022-08-22T23:08:50.978Z,18.13
2022-08-22T23:13:55.150Z,18.06
2022-08-22T23:18:58.521Z,18.03
2022-08-22T23:24:02.244Z,17.99
2022-08-22T23:29:06.887Z,17.93
2022-08-22T23:34:14.131Z,17.88
2022-08-22T23:39:18.682Z,17.85
2022-08-22T23:44:25.113Z,17.83
2022-08-22T23:49:30.173Z,17.82
2022-08-22T23:54:34.294Z,17.82
2022-08-22T23:59:38.937Z,17.83
